Time;durP1;ratioP1;P1;durP2;ratioP2;P2;SDS_P1;SDS_P2;PMS_P1;PMS_P2;Temp;Humidity;BMP_temperature;BMP_pressure;BME280_temperature;BME280_humidity;BME280_pressure;Samples;Min_cycle;Max_cycle;Signal;HPM_P1;HPM_P2
2023/03/23 00:01:26;;;;;;;23.83;8.88;;;;;;;-144.73;97.17;54530.84;6166503;23;20080;-73
2023/03/23 00:03:56;;;;;;;17.02;8.57;;;;;;;-144.73;98.25;54576.00;6161580;23;20100;-73
2023/03/23 00:06:24;;;;;;;17.67;9.23;;;;;;;-144.73;99.47;54547.28;6191901;23;20376;-75
2023/03/23 00:08:56;;;;;;;13.70;9.63;;;;;;;-144.73;100.00;54573.97;6187152;23;20502;-76
2023/03/23 00:11:30;;;;;;;19.15;10.05;;;;;;;-144.73;100.00;54563.69;6192223;23;20012;-77
2023/03/23 00:14:00;;;;;;;20.13;11.48;;;;;;;-144.73;100.00;54526.75;6162870;23;20024;-75
2023/03/23 00:16:30;;;;;;;25.98;12.57;;;;;;;-144.73;100.00;54563.69;6168701;23;20442;-75
2023/03/23 00:18:58;;;;;;;23.73;12.15;;;;;;;-144.73;100.00;54528.81;6188055;23;20083;-76
2023/03/23 00:21:32;;;;;;;20.48;13.70;;;;;;;-144.73;100.00;54555.47;6218194;23;20001;-76
2023/03/23 00:24:09;;;;;;;20.65;13.20;;;;;;;-144.73;100.00;54530.84;6186241;23;20028;-76
2023/03/23 00:26:39;;;;;;;28.67;16.42;;;;;;;-144.73;100.00;54522.63;6192673;23;20027;-76
2023/03/23 00:29:06;;;;;;;23.00;14.85;;;;;;;-144.73;100.00;54576.00;6186092;23;20020;-76
2023/03/23 00:31:32;;;;;;;28.13;16.70;;;;;;;-144.73;100.00;54604.75;6167421;23;20001;-77
2023/03/23 00:34:01;;;;;;;29.35;17.02;;;;;;;-144.73;100.00;54551.38;6186149;23;20536;-77
2023/03/23 00:36:28;;;;;;;22.95;15.98;;;;;;;-144.73;100.00;54539.06;6217191;23;20024;-77
2023/03/23 00:38:57;;;;;;;33.08;20.20;;;;;;;-144.73;100.00;54539.06;6186359;23;20080;-77
2023/03/23 00:41:26;;;;;;;27.58;19.45;;;;;;;-144.73;100.00;54615.00;6220950;23;20015;-77
2023/03/23 00:43:53;;;;;;;34.72;19.40;;;;;;;-144.73;100.00;54559.59;6171819;23;20097;-78
2023/03/23 00:46:20;;;;;;;29.67;20.27;;;;;;;-144.73;100.00;54555.47;6176677;23;20431;-77
2023/03/23 00:48:48;;;;;;;34.38;20.90;;;;;;;-144.73;100.00;54567.81;6166899;23;20044;-77
2023/03/23 00:51:14;;;;;;;35.88;21.73;;;;;;;-144.73;100.00;54514.44;6170930;23;20096;-77
2023/03/23 00:53:40;;;;;;;33.30;21.20;;;;;;;-144.73;100.00;54576.00;6215023;23;20021;-77
2023/03/23 00:56:08;;;;;;;37.72;23.38;;;;;;;-144.73;100.00;54567.81;6218266;23;20005;-78
2023/03/23 00:58:34;;;;;;;34.78;22.27;;;;;;;-144.73;100.00;54524.69;6163281;23;20079;-78
2023/03/23 01:01:00;;;;;;;40.45;23.42;;;;;;;-144.73;100.00;54539.06;6193353;23;19997;-78
2023/03/23 01:03:27;;;;;;;30.35;21.35;;;;;;;-144.73;100.00;54518.53;6187979;23;20244;-78
2023/03/23 01:05:54;;;;;;;37.15;23.15;;;;;;;-144.73;100.00;54539.06;6191989;23;20004;-78
2023/03/23 01:08:21;;;;;;;39.58;24.88;;;;;;;-144.73;100.00;54563.69;6189180;23;20016;-77
2023/03/23 01:10:47;;;;;;;37.10;24.45;;;;;;;-144.73;100.00;54559.59;6218442;23;20031;-77
2023/03/23 01:13:13;;;;;;;37.25;24.02;;;;;;;-144.73;100.00;54555.47;6167285;23;20012;-77
2023/03/23 01:15:39;;;;;;;36.75;23.25;;;;;;;-144.73;100.00;54553.44;6197490;23;20080;-77
2023/03/23 01:18:05;;;;;;;34.95;23.58;;;;;;;-144.73;100.00;54518.53;6193303;23;20340;-77
2023/03/23 01:20:32;;;;;;;38.63;24.27;;;;;;;-144.73;100.00;54543.16;6175194;23;19997;-77
2023/03/23 01:23:01;;;;;;;38.92;25.15;;;;;;;-144.73;100.00;54571.91;6171111;23;20003;-77
2023/03/23 01:25:32;;;;;;;43.75;24.63;;;;;;;-144.73;100.00;54539.06;6172662;23;20001;-77
2023/03/23 01:27:58;;;;;;;40.37;27.30;;;;;;;-144.73;100.00;54563.69;6171209;23;20047;-78
2023/03/23 01:30:25;;;;;;;38.63;24.92;;;;;;;-144.73;100.00;54541.13;6193875;23;20095;-78
2023/03/23 01:32:51;;;;;;;45.03;26.80;;;;;;;-144.73;100.00;54549.31;6191837;23;20083;-78
2023/03/23 01:35:18;;;;;;;44.65;26.92;;;;;;;-144.73;100.00;54563.69;6223283;23;20017;-78
2023/03/23 01:37:50;;;;;;;52.28;28.45;;;;;;;-144.73;100.00;54547.28;6197796;23;20004;-76
2023/03/23 01:40:34;;;;;;;41.55;26.42;;;;;;;-144.73;100.00;54522.63;6211950;22;20032;-76
2023/03/23 01:43:33;;;;;;;;;;;;;;;;;;;;;
2023/03/23 01:50:56;;;;;;;56.47;31.90;;;;;;;-144.73;100.00;54543.16;6133382;23;20040;-76
2023/03/23 01:53:58;;;;;;;56.28;29.33;;;;;;;-144.73;100.00;54539.06;6198247;23;20070;-76
2023/03/23 01:56:54;;;;;;;54.60;29.02;;;;;;;-144.73;100.00;54567.81;6220255;23;20009;-76
2023/03/23 01:59:45;;;;;;;50.22;27.80;;;;;;;-144.73;100.00;54526.75;6183633;23;20025;-76
2023/03/23 02:02:42;;;;;;;54.03;31.90;;;;;;;-144.73;100.00;54565.75;6193420;23;20008;-76
2023/03/23 02:05:44;;;;;;;48.70;27.05;;;;;;;-144.73;100.00;54576.00;6178988;23;20147;-76
2023/03/23 02:09:05;;;;;;;43.83;28.08;;;;;;;-144.73;100.00;54571.91;6190316;23;20009;-75
2023/03/23 02:11:50;;;;;;;51.25;29.98;;;;;;;-144.73;100.00;54555.47;6173721;23;20001;-76
2023/03/23 02:14:31;;;;;;;46.75;27.98;;;;;;;-144.73;100.00;54555.47;6183158;23;20029;-76
2023/03/23 02:17:27;;;;;;;53.53;28.10;;;;;;;-144.73;100.00;54526.75;6224861;23;20012;-76
2023/03/23 02:20:23;;;;;;;42.47;27.63;;;;;;;-144.73;100.00;54559.59;6161881;23;20021;-75
2023/03/23 02:23:29;;;;;;;51.63;28.65;;;;;;;-144.73;100.00;54578.06;6167091;23;20005;-75
2023/03/23 02:26:25;;;;;;;47.78;28.85;;;;;;;-144.73;100.00;54578.06;6194775;23;20457;-76
2023/03/23 02:29:07;;;;;;;46.03;26.52;;;;;;;-144.73;100.00;54551.38;6185964;23;20020;-76
2023/03/23 02:32:33;;;;;;;48.42;27.95;;;;;;;-144.73;100.00;54547.28;6195019;23;20012;-76
2023/03/23 02:35:30;;;;;;;39.08;24.95;;;;;;;-144.73;100.00;54584.22;6170621;23;20016;-76
2023/03/23 02:38:08;;;;;;;36.63;25.15;;;;;;;-144.73;100.00;54559.59;6191338;23;20005;-76
2023/03/23 02:40:40;;;;;;;35.45;23.23;;;;;;;-144.73;100.00;54547.28;6192981;23;20001;-76
2023/03/23 02:43:09;;;;;;;43.20;25.77;;;;;;;-144.73;100.00;54559.59;6191213;23;20088;-76
2023/03/23 02:45:37;;;;;;;36.47;23.10;;;;;;;-144.73;100.00;54567.81;6192805;23;20001;-77
2023/03/23 02:48:05;;;;;;;44.28;27.83;;;;;;;-144.73;100.00;54571.91;6191086;23;20080;-77
2023/03/23 02:50:32;;;;;;;37.72;23.13;;;;;;;-144.73;100.00;54551.38;6192422;23;20011;-77
2023/03/23 02:52:59;;;;;;;43.78;25.65;;;;;;;-144.73;100.00;54584.22;6191405;23;20466;-77
2023/03/23 02:55:28;;;;;;;38.75;23.38;;;;;;;-144.73;100.00;54576.00;6194121;23;20032;-77
2023/03/23 02:57:54;;;;;;;39.30;22.95;;;;;;;-144.73;100.00;54576.00;6204791;23;20005;-79
2023/03/23 03:00:20;;;;;;;42.65;25.88;;;;;;;-144.73;100.00;54571.91;6231502;23;20008;-79
2023/03/23 03:02:52;;;;;;;39.40;22.00;;;;;;;-144.73;100.00;54600.63;6205826;23;20419;-79
2023/03/23 03:05:30;;;;;;;32.47;21.05;;;;;;;-144.73;100.00;54576.00;6195280;23;20019;-79
2023/03/23 03:08:04;;;;;;;31.27;20.10;;;;;;;-144.73;100.00;54555.47;6202897;23;20005;-80
2023/03/23 03:11:01;;;;;;;30.55;20.38;;;;;;;-144.73;100.00;54592.44;6201039;23;20082;-80
2023/03/23 03:13:38;;;;;;;31.17;21.02;;;;;;;-144.73;100.00;54563.69;6198858;23;20013;-79
2023/03/23 03:16:26;;;;;;;33.03;21.55;;;;;;;-144.73;100.00;54563.69;6204668;23;20084;-80
2023/03/23 03:19:39;;;;;;;37.75;20.80;;;;;;;-144.73;100.00;54551.38;6227851;23;20029;-79
2023/03/23 03:22:07;;;;;;;33.92;22.58;;;;;;;-144.73;100.00;54514.44;6205138;23;20000;-79
2023/03/23 03:24:37;;;;;;;28.75;20.40;;;;;;;-144.73;100.00;54555.47;6221275;23;20017;-79
2023/03/23 03:27:06;;;;;;;27.88;18.88;;;;;;;-144.73;100.00;54543.16;6197840;23;19997;-79
2023/03/23 03:29:41;;;;;;;29.65;19.50;;;;;;;-144.73;100.00;54588.31;6184799;23;20012;-78
2023/03/23 03:32:10;;;;;;;28.20;19.63;;;;;;;-144.73;100.00;54559.59;6222868;23;20013;-78
2023/03/23 03:34:35;;;;;;;34.17;20.52;;;;;;;-144.73;100.00;54555.47;6187649;23;20031;-78
2023/03/23 03:37:05;;;;;;;33.95;20.55;;;;;;;-144.73;100.00;54530.84;6196591;23;20001;-77
2023/03/23 03:39:35;;;;;;;29.45;21.65;;;;;;;-144.73;100.00;54539.06;6215274;23;20044;-77
2023/03/23 03:42:00;;;;;;;34.78;21.88;;;;;;;-144.73;100.00;54580.13;6223350;23;20435;-77
2023/03/23 03:44:26;;;;;;;38.40;24.05;;;;;;;-144.73;100.00;54584.22;6215385;23;20092;-77
2023/03/23 03:46:51;;;;;;;38.55;21.77;;;;;;;-144.73;100.00;54551.38;6196565;23;20461;-77
2023/03/23 03:49:17;;;;;;;32.40;23.02;;;;;;;-144.73;100.00;54567.81;6216744;23;20079;-76
2023/03/23 03:51:42;;;;;;;30.73;20.35;;;;;;;-144.73;100.00;54559.59;6196587;23;20027;-76
2023/03/23 03:54:08;;;;;;;28.23;20.08;;;;;;;-144.73;100.00;54547.28;6189851;23;20079;-76
2023/03/23 03:56:40;;;;;;;32.22;21.83;;;;;;;-144.73;100.00;54539.06;6196342;23;20012;-76
2023/03/23 03:59:06;;;;;;;;;;;;;;;-144.73;100.00;54565.75;6190862;23;20034;-76
2023/03/23 04:01:31;;;;;;;35.22;22.95;;;;;;;-144.73;100.00;54551.38;6213245;23;19939;-76
2023/03/23 04:03:57;;;;;;;28.92;19.80;;;;;;;-144.73;100.00;54543.16;6191328;23;20012;-76
2023/03/23 04:06:22;;;;;;;30.33;19.48;;;;;;;-144.73;100.00;54539.06;6196358;23;20004;-76
2023/03/23 04:08:48;;;;;;;25.80;17.95;;;;;;;-144.73;100.00;54551.38;6189503;23;20047;-76
2023/03/23 04:11:14;;;;;;;23.27;16.27;;;;;;;-144.73;100.00;54612.97;6196768;23;20009;-76
2023/03/23 04:13:40;;;;;;;26.60;16.05;;;;;;;-144.73;100.00;54555.47;6191859;23;20017;-76
2023/03/23 04:16:07;;;;;;;34.00;16.85;;;;;;;-144.73;100.00;54567.81;6195815;23;20011;-76
2023/03/23 04:18:33;;;;;;;25.65;16.80;;;;;;;-144.73;100.00;54584.22;6192655;23;20100;-76
2023/03/23 04:21:00;;;;;;;25.23;17.35;;;;;;;-144.73;100.00;54567.81;6197073;23;20015;-76
2023/03/23 04:23:27;;;;;;;26.50;16.88;;;;;;;-144.73;100.00;54584.22;6219441;23;20011;-75
2023/03/23 04:25:57;;;;;;;28.83;17.58;;;;;;;-144.73;100.00;54559.59;6196354;23;20091;-75
2023/03/23 04:28:24;;;;;;;22.05;16.98;;;;;;;-144.73;100.00;54571.91;6193548;23;20017;-75
2023/03/23 04:30:52;;;;;;;28.42;17.13;;;;;;;-144.73;100.00;54508.28;6196258;23;20446;-76
2023/03/23 04:33:19;;;;;;;26.15;16.27;;;;;;;-144.73;100.00;54543.16;6193881;23;20013;-75
2023/03/23 04:35:45;;;;;;;27.27;17.67;;;;;;;-144.73;100.00;54567.81;6196418;23;20023;-75
2023/03/23 04:38:13;;;;;;;30.15;17.13;;;;;;;-144.73;100.00;54612.97;6195350;23;20012;-75
2023/03/23 04:40:40;;;;;;;22.60;15.77;;;;;;;-144.73;100.00;54543.16;6223881;23;20009;-75
2023/03/23 04:43:06;;;;;;;29.60;18.73;;;;;;;-144.73;100.00;54578.06;6222584;23;20009;-75
2023/03/23 04:45:37;;;;;;;26.05;16.92;;;;;;;-144.73;100.00;54565.75;6197510;23;20001;-74
2023/03/23 04:48:04;;;;;;;32.95;17.88;;;;;;;-144.73;100.00;54539.06;6195638;23;19993;-75
2023/03/23 04:50:32;;;;;;;27.77;17.60;;;;;;;-144.73;100.00;54596.53;6196584;23;20067;-75
2023/03/23 04:53:04;;;;;;;37.92;16.55;;;;;;;-144.73;100.00;54580.13;6195116;23;19997;-75
2023/03/23 04:55:31;;;;;;;31.95;17.30;;;;;;;-144.73;100.00;54592.44;6195838;23;20087;-75
2023/03/23 04:58:00;;;;;;;27.80;16.63;;;;;;;-144.73;100.00;54571.91;6193788;23;20001;-75
2023/03/23 05:00:25;;;;;;;25.05;15.02;;;;;;;-144.73;100.00;54627.31;6222540;23;19997;-75
2023/03/23 05:02:51;;;;;;;29.40;16.42;;;;;;;-144.73;100.00;54571.91;6195033;23;20007;-74
2023/03/23 05:05:18;;;;;;;25.08;15.80;;;;;;;-144.73;100.00;54571.91;6196351;23;20008;-75
2023/03/23 05:07:44;;;;;;;23.00;14.30;;;;;;;-144.73;100.00;54555.47;6222304;23;20008;-75
2023/03/23 05:10:11;;;;;;;22.80;13.80;;;;;;;-144.73;100.00;54588.31;6211313;23;20016;-75
2023/03/23 05:12:38;;;;;;;20.88;12.30;;;;;;;-144.73;100.00;54567.81;6195512;23;20011;-75
2023/03/23 05:15:05;;;;;;;15.80;11.48;;;;;;;-144.73;100.00;54576.00;6186257;23;20016;-75
2023/03/23 05:17:32;;;;;;;23.75;14.52;;;;;;;-144.73;100.00;54551.38;6195875;23;20009;-74
2023/03/23 05:19:58;;;;;;;21.30;14.43;;;;;;;-144.73;100.00;54584.22;6186108;23;20077;-75
2023/03/23 05:22:26;;;;;;;17.83;14.07;;;;;;;-144.73;100.00;54584.22;6222458;23;20343;-74
2023/03/23 05:24:52;;;;;;;19.80;12.75;;;;;;;-144.73;100.00;54563.69;6186294;23;20440;-75
2023/03/23 05:27:21;;;;;;;20.52;12.43;;;;;;;-144.73;100.00;54571.91;6222180;23;20003;-75
2023/03/23 05:29:49;;;;;;;20.88;13.10;;;;;;;-144.73;100.00;54553.44;6186508;23;20016;-75
2023/03/23 05:32:16;;;;;;;32.47;14.93;;;;;;;-144.73;100.00;54563.69;6196188;23;20069;-75
2023/03/23 05:34:43;;;;;;;19.15;12.48;;;;;;;-144.73;100.00;54555.47;6187098;23;20016;-75
2023/03/23 05:37:09;;;;;;;18.67;11.77;;;;;;;-144.73;100.00;54565.75;6195659;23;20000;-75
2023/03/23 05:39:36;;;;;;;15.63;12.32;;;;;;;-144.73;100.00;54510.31;6187729;23;20033;-75
2023/03/23 05:42:03;;;;;;;21.95;13.52;;;;;;;-144.73;100.00;54588.31;6221711;23;20008;-75
2023/03/23 05:44:29;;;;;;;21.65;13.02;;;;;;;-144.73;100.00;54584.22;6188418;23;20070;-75
2023/03/23 05:46:56;;;;;;;20.15;11.25;;;;;;;-144.73;100.00;54545.22;6196142;23;20039;-75
2023/03/23 05:49:22;;;;;;;21.10;11.02;;;;;;;-144.73;100.00;54567.81;6188141;23;20043;-75
2023/03/23 05:51:49;;;;;;;16.90;10.13;;;;;;;-144.73;100.00;54576.00;6196274;23;20091;-75
2023/03/23 05:54:16;;;;;;;19.30;11.15;;;;;;;-144.73;100.00;54557.53;6215853;23;20046;-74
2023/03/23 05:56:42;;;;;;;16.80;10.75;;;;;;;-144.73;100.00;54588.31;6196383;23;19997;-75
2023/03/23 05:59:09;;;;;;;16.95;9.82;;;;;;;-144.73;100.00;54608.84;6189585;23;20020;-74
2023/03/23 06:01:35;;;;;;;19.92;10.23;;;;;;;-144.73;100.00;54547.28;6222539;23;20000;-74
2023/03/23 06:04:01;;;;;;;19.02;11.25;;;;;;;-144.73;100.00;54571.91;6189615;23;20023;-74
2023/03/23 06:06:29;;;;;;;18.83;9.65;;;;;;;-144.73;100.00;54567.81;6195838;23;20000;-74
2023/03/23 06:08:55;;;;;;;20.80;9.48;;;;;;;-144.73;100.00;54592.44;6191217;23;20071;-76
2023/03/23 06:11:21;;;;;;;17.17;8.40;;;;;;;-144.73;100.00;54565.75;6197080;23;20079;-74
2023/03/23 06:13:47;;;;;;;14.57;9.40;;;;;;;-144.73;100.00;54573.97;6190990;23;20036;-74
2023/03/23 06:16:14;;;;;;;13.82;8.00;;;;;;;-144.73;100.00;54551.38;6221481;23;20008;-74
2023/03/23 06:18:40;;;;;;;13.38;8.88;;;;;;;-144.73;100.00;54563.69;6190988;23;20029;-74
2023/03/23 06:21:07;;;;;;;14.18;8.02;;;;;;;-144.73;100.00;54571.91;6196186;23;20007;-75
2023/03/23 06:23:34;;;;;;;14.70;7.90;;;;;;;-144.73;100.00;54539.06;6191293;23;20017;-74
2023/03/23 06:26:03;;;;;;;18.95;8.32;;;;;;;-144.73;100.00;54592.44;6196201;23;20001;-75
2023/03/23 06:28:29;;;;;;;17.73;8.40;;;;;;;-144.73;100.00;54600.63;6192356;23;20012;-74
2023/03/23 06:30:54;;;;;;;15.63;8.27;;;;;;;-144.73;100.00;54604.75;6196398;23;20047;-75
2023/03/23 06:33:20;;;;;;;15.73;8.27;;;;;;;-144.73;100.00;54584.22;6192458;23;20013;-75
2023/03/23 06:35:46;;;;;;;18.08;8.45;;;;;;;-144.73;100.00;54561.63;6195413;23;20035;-75
2023/03/23 06:38:12;;;;;;;13.43;8.32;;;;;;;-144.73;100.00;54522.63;6192948;23;20024;-74
2023/03/23 06:40:38;;;;;;;14.95;7.88;;;;;;;-144.73;100.00;54576.00;6196708;23;20001;-74
2023/03/23 06:43:04;;;;;;;15.00;8.02;;;;;;;-144.73;100.00;54586.28;6195344;23;20032;-73
2023/03/23 06:45:30;;;;;;;11.75;7.28;;;;;;;-144.73;100.00;54588.31;6196785;23;20028;-74
2023/03/23 06:47:55;;;;;;;16.73;7.90;;;;;;;-144.73;100.00;54580.13;6195151;23;20083;-74
2023/03/23 06:50:21;;;;;;;14.20;7.45;;;;;;;-144.73;100.00;54563.69;6198593;23;20078;-75
2023/03/23 06:52:49;;;;;;;14.38;7.03;;;;;;;-144.73;100.00;54551.38;6195155;23;20028;-75
2023/03/23 06:55:15;;;;;;;11.20;6.55;;;;;;;-144.73;100.00;54571.91;6197561;23;20024;-75
2023/03/23 06:57:42;;;;;;;14.07;8.10;;;;;;;-144.73;100.00;54580.13;6195841;23;20023;-75
2023/03/23 07:00:11;;;;;;;11.65;6.80;;;;;;;-144.73;100.00;54629.38;6184127;23;20055;-75
2023/03/23 07:02:37;;;;;;;16.17;7.45;;;;;;;-144.73;100.00;54588.31;6219630;23;20127;-75
2023/03/23 07:05:03;;;;;;;12.95;6.93;;;;;;;-144.73;100.00;54539.06;6186595;23;20052;-73
2023/03/23 07:07:29;;;;;;;11.85;5.88;;;;;;;-144.73;99.64;54592.44;6197404;23;20005;-74
2023/03/23 07:09:55;;;;;;;14.43;6.25;;;;;;;-144.73;99.30;54547.28;6187923;23;20095;-74
2023/03/23 07:12:20;;;;;;;11.93;6.68;;;;;;;-144.73;99.10;54547.28;6223243;23;20438;-74
2023/03/23 07:14:45;;;;;;;11.70;5.88;;;;;;;-144.73;98.98;54571.91;6215076;23;20485;-74
2023/03/23 07:17:11;;;;;;;9.65;4.68;;;;;;;-144.73;98.23;54543.16;6196553;23;20021;-74
2023/03/23 07:19:37;;;;;;;12.57;5.25;;;;;;;-144.73;98.17;54539.06;6189168;23;20096;-74
2023/03/23 07:22:06;;;;;;;9.77;5.50;;;;;;;-144.73;97.42;54563.69;6197346;23;20000;-74
2023/03/23 07:24:33;;;;;;;11.80;5.50;;;;;;;-144.73;97.24;54559.59;6215456;23;20013;-74
2023/03/23 07:26:59;;;;;;;11.27;5.03;;;;;;;-144.73;97.31;54588.31;6197081;23;20000;-74
2023/03/23 07:29:24;;;;;;;10.05;4.95;;;;;;;-144.73;95.84;54567.81;6189030;23;20019;-67
2023/03/23 07:31:51;;;;;;;11.38;5.95;;;;;;;-144.73;95.57;54557.53;6197844;23;20008;-69
2023/03/23 07:34:17;;;;;;;14.02;4.95;;;;;;;-144.73;95.00;54555.47;6216750;23;20012;-69
2023/03/23 07:36:43;;;;;;;10.35;5.00;;;;;;;-144.73;94.18;54580.13;6221859;23;20028;-67
2023/03/23 07:39:08;;;;;;;15.18;4.57;;;;;;;-144.73;93.24;54576.00;6190911;23;20040;-68
2023/03/23 07:41:34;;;;;;;12.82;4.30;;;;;;;-144.73;93.02;54559.59;6222761;23;20011;-68
2023/03/23 07:43:59;;;;;;;8.15;3.90;;;;;;;-144.73;92.03;54604.75;6217833;23;20342;-68
2023/03/23 07:46:25;;;;;;;13.00;5.47;;;;;;;-144.73;91.49;54539.06;6197458;23;20007;-68
2023/03/23 07:48:51;;;;;;;13.40;4.45;;;;;;;-144.73;91.40;54493.91;6192056;23;20008;-69
2023/03/23 07:51:17;;;;;;;9.68;4.60;;;;;;;-144.73;91.58;54555.47;6187991;23;20091;-69
2023/03/23 07:53:46;;;;;;;10.98;4.32;;;;;;;-144.73;91.17;54567.81;6182591;23;20096;-68
2023/03/23 07:56:14;;;;;;;9.30;4.68;;;;;;;-144.73;92.13;54588.31;6190194;23;20430;-69
2023/03/23 07:58:41;;;;;;;7.28;4.13;;;;;;;-144.73;93.44;54551.38;6184414;23;20151;-69
2023/03/23 08:01:07;;;;;;;10.15;5.20;;;;;;;-144.73;94.32;54514.44;6189982;23;20361;-67
2023/03/23 08:03:32;;;;;;;8.32;4.68;;;;;;;-144.73;94.70;54571.91;6186766;23;20039;-68
2023/03/23 08:05:59;;;;;;;9.77;5.07;;;;;;;-144.73;95.04;54543.16;6215226;23;20008;-68
2023/03/23 08:08:25;;;;;;;9.57;5.40;;;;;;;-144.73;94.89;54539.06;6213158;23;20410;-68
2023/03/23 08:10:50;;;;;;;7.10;5.13;;;;;;;-144.73;95.45;54563.69;6188370;23;20014;-68
2023/03/23 08:13:16;;;;;;;8.27;5.05;;;;;;;-144.73;95.60;54569.84;6187112;23;20032;-68
2023/03/23 08:15:42;;;;;;;8.25;5.18;;;;;;;-144.73;96.33;54551.38;6189842;23;20046;-68
2023/03/23 08:18:08;;;;;;;10.10;5.15;;;;;;;-144.73;96.99;54559.59;6211505;23;20026;-68
2023/03/23 08:20:35;;;;;;;14.10;6.30;;;;;;;-144.73;97.85;54555.47;6216943;23;20004;-69
2023/03/23 08:23:02;;;;;;;9.55;5.47;;;;;;;-144.73;98.38;54573.97;6188557;23;20030;-68
2023/03/23 08:25:30;;;;;;;7.68;5.78;;;;;;;-144.73;98.30;54610.91;6190689;23;20003;-67
2023/03/23 08:27:56;;;;;;;10.07;5.10;;;;;;;-144.73;98.21;54559.59;6187962;23;20019;-67
2023/03/23 08:30:22;;;;;;;7.97;6.03;;;;;;;-144.73;99.20;54549.31;6189315;23;20000;-68
2023/03/23 08:32:49;;;;;;;9.63;5.47;;;;;;;-144.73;98.32;54543.16;6189385;23;20008;-67
2023/03/23 08:35:16;;;;;;;18.50;6.28;;;;;;;-144.73;100.00;54567.81;6188954;23;20431;-68
2023/03/23 08:37:42;;;;;;;11.60;6.75;;;;;;;-144.73;100.00;54584.22;6190053;23;20007;-69
2023/03/23 08:40:09;;;;;;;13.70;8.23;;;;;;;-144.73;100.00;54600.63;6181458;23;20104;-68
2023/03/23 08:42:37;;;;;;;14.95;8.27;;;;;;;-144.73;100.00;54612.97;6189228;23;20074;-70
2023/03/23 08:45:07;;;;;;;13.57;6.00;;;;;;;-144.73;100.00;54557.53;6180847;23;20016;-71
2023/03/23 08:47:34;;;;;;;8.48;4.10;;;;;;;-144.73;100.00;54592.44;6189606;23;20013;-73
2023/03/23 08:50:06;;;;;;;8.38;2.70;;;;;;;-144.73;100.00;54539.06;6209391;23;20017;-74
2023/03/23 08:52:45;;;;;;;5.90;2.70;;;;;;;-144.73;99.17;54559.59;6197012;23;20066;-71
2023/03/23 08:55:15;;;;;;;9.82;3.13;;;;;;;-144.73;98.43;54530.84;6182892;23;20102;-71
2023/03/23 08:57:42;;;;;;;5.28;2.67;;;;;;;-144.73;99.73;54592.44;6191502;23;20005;-72
2023/03/23 09:00:22;;;;;;;8.77;3.10;;;;;;;-144.73;99.27;54555.47;6176515;23;20448;-71
2023/03/23 09:02:52;;;;;;;8.38;2.90;;;;;;;-144.73;99.02;54563.69;6190249;23;19996;-69
2023/03/23 09:05:25;;;;;;;8.77;3.50;;;;;;;-144.73;99.19;54539.06;6191184;23;20032;-69
2023/03/23 09:07:58;;;;;;;7.10;3.55;;;;;;;-144.73;98.74;54588.31;6189300;23;20006;-69
2023/03/23 09:10:30;;;;;;;9.55;4.38;;;;;;;-144.73;96.96;54580.13;6192459;23;19996;-70
2023/03/23 09:13:00;;;;;;;9.35;3.67;;;;;;;-144.73;95.86;54522.63;6189348;23;20005;-70
2023/03/23 09:15:32;;;;;;;10.55;3.65;;;;;;;-144.73;95.47;54543.16;6192146;23;20007;-69
2023/03/23 09:18:04;;;;;;;12.75;3.70;;;;;;;-144.73;95.45;54522.63;6177341;23;20006;-68
2023/03/23 09:20:30;;;;;;;12.85;3.55;;;;;;;-144.73;94.87;54530.84;6213503;23;20135;-69
2023/03/23 09:22:57;;;;;;;15.20;3.72;;;;;;;-144.73;92.89;54563.69;6187945;23;20066;-70
2023/03/23 09:25:29;;;;;;;18.10;3.85;;;;;;;-144.73;92.71;54539.06;6191122;23;20079;-68
2023/03/23 09:27:58;;;;;;;16.80;3.63;;;;;;;-144.73;92.50;54571.91;6190266;23;20011;-69
2023/03/23 09:30:28;;;;;;;16.70;3.60;;;;;;;-144.73;92.22;54559.59;6190904;23;20004;-70
2023/03/23 09:33:01;;;;;;;15.40;3.67;;;;;;;-144.73;91.25;54516.47;6187984;23;20005;-69
2023/03/23 09:35:31;;;;;;;20.23;4.30;;;;;;;-144.73;90.39;54604.75;6191781;23;19996;-71
2023/03/23 09:38:41;;;;;;;19.07;4.10;;;;;;;-144.73;89.28;54563.69;6165101;23;20020;-69
2023/03/23 09:41:45;;;;;;;15.55;3.53;;;;;;;-144.73;89.44;54592.44;6181648;23;20008;-69
2023/03/23 09:47:55;;;;;;;21.23;3.92;;;;;;;-144.73;89.54;54555.47;6065999;23;20058;-70
2023/03/23 09:56:32;;;;;;;;;;;;;;;;;;;;;
2023/03/23 10:00:09;;;;;;;;;;;;;;;;;;;;;
2023/03/23 10:03:54;;;;;;;22.70;4.20;;;;;;;-144.73;86.07;54561.63;6026082;23;20493;-71
2023/03/23 10:06:30;;;;;;;13.00;3.22;;;;;;;-144.73;86.06;54518.53;6068750;23;20051;-71
2023/03/23 10:09:11;;;;;;;17.60;3.85;;;;;;;-144.73;86.05;54506.22;6142162;23;20048;-70
2023/03/23 10:15:05;;;;;;;18.80;4.38;;;;;;;-144.73;85.38;54539.06;6158991;23;20023;-69
2023/03/23 10:18:11;;;;;;;19.85;3.78;;;;;;;-144.73;85.46;54514.44;6065288;23;20489;-70
2023/03/23 10:30:13;;;;;;;23.45;4.00;;;;;;;-144.73;85.46;54547.28;5939244;23;20085;-70
2023/03/23 10:43:15;;;;;;;21.58;4.18;;;;;;;-144.73;83.60;54547.28;6111758;23;20041;-69
2023/03/23 10:46:02;;;;;;;18.23;3.55;;;;;;;-144.73;83.32;54530.84;6101374;23;20081;-70
2023/03/23 10:49:32;;;;;;;18.52;4.70;;;;;;;-144.73;82.65;54569.84;6124961;23;20006;-69
2023/03/23 10:56:24;;;;;;;25.98;5.03;;;;;;;-144.73;84.03;54543.16;6002357;23;20012;-70
2023/03/23 10:59:12;;;;;;;;;;;;;;;;;;;;;
2023/03/23 11:06:39;;;;;;;21.33;3.83;;;;;;;-144.73;81.71;54539.06;6144755;23;20023;-71
2023/03/23 11:09:13;;;;;;;21.77;3.95;;;;;;;-144.73;79.74;54543.16;6195316;23;20008;-70
2023/03/23 11:11:48;;;;;;;17.73;3.75;;;;;;;-144.73;79.43;54539.06;6222393;23;20019;-70
2023/03/23 11:14:19;;;;;;;24.60;4.65;;;;;;;-144.73;77.79;54567.81;6215187;23;20087;-70
2023/03/23 11:17:06;;;;;;;16.95;4.05;;;;;;;-144.73;78.82;54522.63;6248793;23;20004;-69
2023/03/23 11:19:37;;;;;;;22.35;4.85;;;;;;;-144.73;79.66;54555.47;6224047;23;20016;-71
2023/03/23 11:22:48;;;;;;;;;;;;;;;;;;;;;
2023/03/23 11:29:13;;;;;;;20.63;3.80;;;;;;;-144.73;83.58;54539.06;6129737;23;20009;-70
2023/03/23 11:32:07;;;;;;;27.13;5.43;;;;;;;-144.73;84.69;54522.63;6154462;23;20016;-71
2023/03/23 11:35:05;;;;;;;27.60;4.70;;;;;;;-144.73;83.43;54506.22;6107340;23;20153;-68
2023/03/23 11:37:35;;;;;;;17.05;4.22;;;;;;;-144.73;83.94;54559.59;6129519;23;20135;-68
2023/03/23 11:40:15;;;;;;;20.98;4.10;;;;;;;-144.73;84.41;54551.38;6119610;23;20101;-68
2023/03/23 11:42:57;;;;;;;18.77;4.32;;;;;;;-144.73;83.15;54563.69;6155368;23;20016;-69
2023/03/23 11:45:40;;;;;;;22.90;4.97;;;;;;;-144.73;81.58;54588.31;6164803;23;20170;-68
2023/03/23 11:48:06;;;;;;;;;;;;;;;-144.73;81.48;54539.06;6218662;23;20012;-70
2023/03/23 11:50:50;;;;;;;;;;;;;;;-144.73;83.05;54518.53;6213142;23;19926;-69
2023/03/23 11:53:25;;;;;;;;;;;;;;;-144.73;84.11;54547.28;6210193;23;19912;-70
2023/03/23 11:56:06;;;;;;;;;;;;;;;-144.73;84.94;54522.63;6212980;23;19914;-70
2023/03/23 11:58:32;;;;;;;;;;;;;;;-144.73;84.81;54539.06;6211537;23;20400;-70
2023/03/23 12:01:06;;;;;;;;;;;;;;;-144.73;85.33;54547.28;6211672;23;19904;-70
2023/03/23 12:03:53;;;;;;;;;;;;;;;-144.73;84.96;54530.84;6210782;23;20294;-70
2023/03/23 12:06:41;;;;;;;;;;;;;;;-144.73;85.60;54549.31;6213694;23;19912;-69
2023/03/23 12:09:30;;;;;;;;;;;;;;;-144.73;86.06;54553.44;6142151;23;19908;-68
2023/03/23 12:12:22;;;;;;;;;;;;;;;-144.73;85.35;54522.63;6209333;23;19914;-71
2023/03/23 12:15:17;;;;;;;;;;;;;;;-144.73;84.67;54539.06;6206611;23;19919;-71
2023/03/23 12:18:21;;;;;;;;;;;;;;;-144.73;85.41;54573.97;6208211;23;19914;-69
2023/03/23 12:20:53;;;;;;;;;;;;;;;-144.73;88.61;54555.47;6081107;23;19920;-68
2023/03/23 12:23:38;;;;;;;;;;;;;;;-144.73;90.59;54567.81;6193707;23;19907;-68
2023/03/23 12:26:16;;;;;;;;;;;;;;;-144.73;92.11;54555.47;6234537;23;19904;-69
2023/03/23 12:28:45;;;;;;;;;;;;;;;-144.73;92.46;54539.06;6206201;23;19908;-69